If you wish to contribute or participate in the discussions about articles you are invited to join SKYbrary as a registered user

 Actions

Mount Isa Airport

From SKYbrary Wiki

YBMA
Airport
ICAO: YBMA – IATA: ISA
Summary
Name Mount Isa Airport
Region Asia and Pacific
Territory Australia AU.gif
Location Mount Isa, Queensland
Serving Mount Isa
Elevation 341.681 m
1,121 ft
1,121 ft341.681 m
Coordinates 20° 40' 4.49" S, 139° 29' 30.11" E
Runways
Designator Length Width Surface ROPS
12/30 854 m2,801.837 ft
18 m59.055 ft
GVL /
16/34 2560 m8,398.95 ft
45 m147.638 ft
ASP yes/yes


METAR
Observation YBMA 261030Z AUTO 16008KT 9999 // NCD 25/15 Q1016 RF00.0/000.0
Station Mount Isa Amo
Date/Time 26 April 2019 10:30:00
Wind direction 160°
Wind speed 08 kts
Lowest cloud amount no clouds detected
Temperature 25°C
Dew point 15°C
Humidity 53%
QNH 1016 hPa
Weather condition n/a

Maps

Terrain

Loading map...

Airport Layout

Loading map...


Accidents & Serious Incidents at or in vicinity of YBMA

None on SKYbrary